Time;durP1;ratioP1;P1;durP2;ratioP2;P2;SDS_P1;SDS_P2;PMS_P1;PMS_P2;Temp;Humidity;BMP_temperature;BMP_pressure;BME280_temperature;BME280_humidity;BME280_pressure;Samples;Min_cycle;Max_cycle;Signal;HPM_P1;HPM_P2
2022/10/08 00:01:35;;;;;;;7.70;5.00;;;;;;;11.91;91.53;97135.77;105497;1303;24279;-81
2022/10/08 00:04:07;;;;;;;12.70;5.90;;;;;;;11.98;91.46;97135.20;105514;1288;24213;-81
2022/10/08 00:06:38;;;;;;;11.10;5.20;;;;;;;11.97;91.19;97131.34;105524;1288;22545;-81
2022/10/08 00:09:09;;;;;;;7.80;4.90;;;;;;;11.90;90.86;97128.65;105440;1303;22463;-81
2022/10/08 00:11:42;;;;;;;11.20;5.80;;;;;;;11.83;91.07;97127.10;105399;1303;22722;-81
2022/10/08 00:14:15;;;;;;;10.40;5.70;;;;;;;11.82;91.06;97124.18;105392;1282;23285;-81
2022/10/08 00:16:46;;;;;;;8.80;5.00;;;;;;;11.84;91.46;97120.71;105413;1296;22423;-81
2022/10/08 00:19:17;;;;;;;9.80;4.90;;;;;;;11.94;91.77;97117.69;105431;1298;23730;-80
2022/10/08 00:21:52;;;;;;;8.60;5.30;;;;;;;12.03;91.77;97116.42;105500;1295;22770;-81
2022/10/08 00:24:27;;;;;;;6.60;5.10;;;;;;;12.05;91.70;97113.43;105511;1291;22422;-81
2022/10/08 00:26:59;;;;;;;8.10;5.60;;;;;;;12.04;91.61;97109.13;105524;1289;22485;-81
2022/10/08 00:29:31;;;;;;;9.80;5.80;;;;;;;12.06;91.70;97106.66;105445;1296;23955;-81
2022/10/08 00:32:02;;;;;;;8.50;5.50;;;;;;;12.08;91.58;97104.84;105518;1288;22848;-81
2022/10/08 00:34:33;;;;;;;8.60;5.60;;;;;;;12.09;91.34;97102.55;105499;1297;22505;-81
2022/10/08 00:37:07;;;;;;;9.20;5.30;;;;;;;12.06;91.11;97098.54;105513;1300;22480;-81
2022/10/08 00:39:38;;;;;;;7.90;5.30;;;;;;;12.06;91.32;97097.46;105361;1288;23819;-81
2022/10/08 00:42:11;;;;;;;7.90;5.50;;;;;;;12.07;91.13;97096.30;105418;1305;22577;-81
2022/10/08 00:44:58;;;;;;;7.80;5.10;;;;;;;12.09;91.05;97090.80;105454;1306;25923;-81
2022/10/08 00:47:42;;;;;;;7.50;5.30;;;;;;;12.14;91.11;97089.34;105346;1306;25313;-81
2022/10/08 00:50:18;;;;;;;6.30;4.50;;;;;;;12.13;90.81;97088.23;105334;1304;22804;-81
2022/10/08 00:52:52;;;;;;;8.00;5.20;;;;;;;12.14;90.98;97083.04;105368;1281;22415;-81
2022/10/08 00:55:26;;;;;;;7.90;5.30;;;;;;;12.11;90.64;97083.30;105379;1306;25934;-81
2022/10/08 00:58:01;;;;;;;7.40;5.30;;;;;;;12.07;90.55;97076.95;105419;1304;22681;-81
2022/10/08 01:00:33;;;;;;;7.10;4.70;;;;;;;12.01;90.57;97077.05;105455;1290;24459;-81
2022/10/08 01:03:05;;;;;;;7.00;5.10;;;;;;;11.95;90.63;97075.91;105509;1295;22498;-81
2022/10/08 01:05:50;;;;;;;10.20;5.20;;;;;;;11.90;90.75;97069.83;105542;1288;25371;-81
2022/10/08 01:08:32;;;;;;;7.60;5.30;;;;;;;11.89;90.77;97074.78;105511;1303;22632;-81
2022/10/08 01:11:12;;;;;;;10.60;5.10;;;;;;;11.87;90.89;97069.69;105460;1281;22571;-81
2022/10/08 01:13:49;;;;;;;8.20;5.20;;;;;;;11.85;90.85;97065.95;105526;1297;22538;-81
2022/10/08 01:16:31;;;;;;;9.50;5.20;;;;;;;11.87;91.03;97065.92;105506;1282;22450;-81
2022/10/08 01:19:16;;;;;;;8.90;4.70;;;;;;;11.91;91.14;97059.56;105420;1303;25278;-81
2022/10/08 01:21:58;;;;;;;10.10;5.80;;;;;;;11.94;91.01;97059.98;105508;1289;22545;-81
2022/10/08 01:27:34;;;;;;;8.00;5.30;;;;;;;11.99;91.11;97053.84;105505;1289;22556;-81
2022/10/08 01:30:10;;;;;;;11.40;5.20;;;;;;;11.95;90.79;97048.39;105498;1295;25830;-81
2022/10/08 01:32:47;;;;;;;9.10;5.10;;;;;;;11.91;90.76;97051.13;105488;1288;22465;-81
2022/10/08 01:35:24;;;;;;;9.70;5.80;;;;;;;11.85;90.72;97048.52;105512;1303;22502;-81
2022/10/08 01:37:58;;;;;;;9.50;4.90;;;;;;;11.81;90.74;97049.89;105557;1303;24270;-81
2022/10/08 01:40:35;;;;;;;7.40;5.10;;;;;;;11.77;90.65;97045.59;105476;1303;27224;-81
2022/10/08 01:43:10;;;;;;;9.80;5.00;;;;;;;11.72;90.64;97045.95;105556;1303;22691;-82
2022/10/08 01:45:46;;;;;;;8.50;5.30;;;;;;;11.71;90.80;97044.79;105507;1303;22879;-81
2022/10/08 01:48:23;;;;;;;8.40;5.10;;;;;;;11.70;90.67;97041.77;105476;1294;22515;-82
2022/10/08 01:50:58;;;;;;;10.20;5.60;;;;;;;11.70;90.71;97036.45;105524;1302;35456;-81
2022/10/08 01:53:34;;;;;;;8.10;4.90;;;;;;;11.73;90.77;97033.94;105497;1289;22430;-82
2022/10/08 01:56:09;;;;;;;7.80;4.90;;;;;;;11.71;90.49;97031.83;105506;1284;22600;-81
2022/10/08 01:58:49;;;;;;;7.10;5.10;;;;;;;11.69;90.57;97035.45;105490;1294;22586;-81
2022/10/08 02:01:27;;;;;;;7.70;5.40;;;;;;;11.71;90.51;97033.11;105554;1282;23829;-81
2022/10/08 02:06:54;;;;;;;6.20;4.50;;;;;;;11.73;90.30;97034.73;105510;1281;22458;-81
2022/10/08 02:09:27;;;;;;;8.30;5.00;;;;;;;11.75;90.28;97032.02;105458;1297;23639;-81
2022/10/08 02:11:59;;;;;;;6.80;5.00;;;;;;;11.85;90.31;97027.78;105518;1290;24228;-81
2022/10/08 02:14:32;;;;;;;11.20;6.20;;;;;;;11.85;89.88;97028.31;105499;1285;23767;-81
2022/10/08 02:17:15;;;;;;;8.90;4.80;;;;;;;11.82;89.67;97029.44;105548;1298;22561;-80
2022/10/08 02:19:53;;;;;;;8.00;4.70;;;;;;;11.75;89.18;97030.78;105484;1303;26392;-81
2022/10/08 02:22:29;;;;;;;8.10;4.60;;;;;;;11.72;89.31;97029.00;105527;1294;22413;-81
2022/10/08 02:25:06;;;;;;;8.60;5.30;;;;;;;11.72;89.39;97029.48;105506;1282;23781;-81
2022/10/08 02:27:50;;;;;;;6.00;4.70;;;;;;;11.75;89.46;97024.36;105492;1303;24355;-81
2022/10/08 02:30:24;;;;;;;8.50;5.10;;;;;;;11.76;89.25;97029.08;105480;1301;26637;-81
2022/10/08 02:33:02;;;;;;;7.10;4.10;;;;;;;11.76;89.23;97029.45;105395;1294;160473;-81
2022/10/08 02:35:38;;;;;;;6.70;4.70;;;;;;;11.73;89.03;97026.55;105475;1303;22422;-81
2022/10/08 02:38:13;;;;;;;6.80;4.90;;;;;;;11.79;89.15;97028.38;105578;1302;22571;-82
2022/10/08 02:40:50;;;;;;;5.70;4.40;;;;;;;11.81;88.79;97019.77;105421;1298;30881;-81
2022/10/08 02:43:25;;;;;;;6.70;4.50;;;;;;;11.78;88.57;97023.87;105503;1297;25339;-81
2022/10/08 02:46:00;;;;;;;8.60;5.00;;;;;;;11.73;88.23;97023.73;105489;1288;22488;-81
2022/10/08 02:48:33;;;;;;;6.50;4.30;;;;;;;11.70;88.27;97026.16;105412;1303;24239;-81
2022/10/08 02:51:09;;;;;;;6.30;4.40;;;;;;;11.64;88.04;97023.56;105509;1298;22443;-81
2022/10/08 02:53:41;;;;;;;7.80;4.30;;;;;;;11.60;88.03;97022.96;105491;1288;22404;-82
2022/10/08 02:56:15;;;;;;;5.70;4.30;;;;;;;11.56;87.98;97020.13;105524;1303;22519;-82
2022/10/08 02:58:47;;;;;;;7.20;4.60;;;;;;;11.55;88.09;97018.42;105489;1303;22540;-81
2022/10/08 03:01:27;;;;;;;8.50;4.30;;;;;;;11.53;87.95;97020.65;105524;1303;22494;-81
2022/10/08 03:04:03;;;;;;;7.20;4.20;;;;;;;11.51;87.91;97017.33;105490;1303;24251;-81
2022/10/08 03:06:35;;;;;;;5.90;4.40;;;;;;;11.52;87.97;97017.27;105530;1287;24432;-82
2022/10/08 03:09:11;;;;;;;6.60;4.70;;;;;;;11.57;87.87;97018.36;105402;1281;23725;-81
2022/10/08 03:11:43;;;;;;;9.40;5.00;;;;;;;11.55;87.76;97019.60;105521;1303;22553;-81
2022/10/08 03:14:16;;;;;;;6.00;4.00;;;;;;;11.61;87.76;97020.04;105535;1303;22576;-81
2022/10/08 03:16:48;;;;;;;6.50;4.50;;;;;;;11.63;87.54;97015.98;105543;1303;22498;-81
2022/10/08 03:19:20;;;;;;;8.80;4.60;;;;;;;11.59;87.31;97014.10;105493;1287;22470;-81
2022/10/08 03:21:55;;;;;;;8.30;4.90;;;;;;;11.55;87.24;97014.02;105536;1296;22720;-81
2022/10/08 03:24:26;;;;;;;7.20;4.50;;;;;;;11.53;87.30;97011.78;105520;1302;22520;-81
2022/10/08 03:26:58;;;;;;;7.40;4.50;;;;;;;11.56;87.38;97014.49;105528;1289;24243;-81
2022/10/08 03:29:29;;;;;;;5.90;4.30;;;;;;;11.58;87.29;97014.01;105491;1294;22473;-81
2022/10/08 03:32:00;;;;;;;6.50;4.20;;;;;;;11.55;87.16;97014.33;105506;1295;22471;-81
2022/10/08 03:34:32;;;;;;;8.10;4.60;;;;;;;11.51;87.18;97010.52;105499;1298;22484;-81
2022/10/08 03:37:03;;;;;;;8.30;5.00;;;;;;;11.47;86.95;97014.16;105478;1282;22462;-81
2022/10/08 03:39:34;;;;;;;6.90;5.00;;;;;;;11.43;87.02;97009.25;105455;1303;22639;-81
2022/10/08 03:42:06;;;;;;;6.10;4.40;;;;;;;11.44;87.31;97011.16;105540;1293;22507;-81
2022/10/08 03:44:37;;;;;;;9.10;4.60;;;;;;;11.47;87.11;97009.60;105481;1299;22488;-82
2022/10/08 03:47:09;;;;;;;7.30;4.90;;;;;;;11.45;87.03;97011.84;105537;1302;24393;-81
2022/10/08 03:49:40;;;;;;;6.90;4.40;;;;;;;11.42;87.00;97010.42;105459;1303;22824;-81
2022/10/08 03:52:11;;;;;;;7.40;4.60;;;;;;;11.40;86.92;97013.45;105518;1285;23959;-81
2022/10/08 03:54:43;;;;;;;6.30;4.20;;;;;;;11.38;86.87;97011.16;105516;1303;24359;-81
2022/10/08 03:57:14;;;;;;;8.00;4.90;;;;;;;11.37;86.94;97007.30;105556;1287;23843;-81
2022/10/08 03:59:45;;;;;;;7.20;4.40;;;;;;;11.36;86.93;97009.75;105487;1288;31535;-81
2022/10/08 04:02:16;;;;;;;8.30;4.20;;;;;;;11.32;86.76;97006.32;105573;1303;22496;-81
2022/10/08 04:04:47;;;;;;;6.70;4.80;;;;;;;11.30;86.93;97004.95;105556;1303;22467;-81
2022/10/08 04:07:18;;;;;;;7.80;4.70;;;;;;;11.32;86.92;97003.09;105560;1303;23715;-81
2022/10/08 04:09:49;;;;;;;8.80;4.60;;;;;;;11.29;86.86;97004.48;105509;1296;24661;-81
2022/10/08 04:12:21;;;;;;;11.20;4.90;;;;;;;11.33;87.03;97004.25;105542;1302;22778;-81
2022/10/08 04:14:52;;;;;;;8.80;4.50;;;;;;;11.34;86.92;97006.52;105572;1297;24371;-82
2022/10/08 04:17:23;;;;;;;6.90;4.70;;;;;;;11.30;86.78;97005.86;105557;1288;23784;-81
2022/10/08 04:19:56;;;;;;;8.80;4.80;;;;;;;11.28;86.84;97005.60;105534;1288;22544;-81
2022/10/08 04:22:27;;;;;;;6.30;4.60;;;;;;;11.27;86.82;97006.14;105558;1289;24257;-81
2022/10/08 04:24:58;;;;;;;8.50;4.60;;;;;;;11.24;86.75;97004.97;105591;1295;22416;-81
2022/10/08 04:27:29;;;;;;;7.70;4.40;;;;;;;11.20;86.79;97004.78;105558;1295;22510;-81
2022/10/08 04:30:00;;;;;;;6.90;3.80;;;;;;;11.17;86.74;97003.69;105568;1288;25409;-81
2022/10/08 04:32:32;;;;;;;8.10;4.80;;;;;;;11.12;86.64;97000.41;105563;1290;22486;-81
2022/10/08 04:35:03;;;;;;;6.20;4.20;;;;;;;11.07;86.57;97004.73;105568;1287;25827;-81
2022/10/08 04:37:34;;;;;;;5.60;4.10;;;;;;;10.99;86.60;97001.21;105526;1288;22492;-81
2022/10/08 04:40:06;;;;;;;7.40;4.70;;;;;;;10.96;86.71;96999.98;105514;1295;25399;-81
2022/10/08 04:42:40;;;;;;;7.70;5.00;;;;;;;10.92;86.81;97001.11;105576;1303;24199;-81
2022/10/08 04:45:12;;;;;;;8.70;4.10;;;;;;;10.88;86.87;96998.59;105546;1303;22791;-82
2022/10/08 04:47:45;;;;;;;8.70;5.00;;;;;;;10.85;86.93;97000.94;105546;1296;22496;-81
2022/10/08 04:50:16;;;;;;;7.00;4.60;;;;;;;10.83;86.95;97002.04;105507;1280;22532;-81
2022/10/08 04:52:50;;;;;;;8.20;4.90;;;;;;;10.79;86.94;97000.73;105548;1285;23304;-81
2022/10/08 04:55:23;;;;;;;7.00;4.40;;;;;;;10.79;87.12;97001.16;105602;1303;22571;-82
2022/10/08 04:57:55;;;;;;;6.90;5.00;;;;;;;10.78;87.35;97004.39;105575;1303;25410;-81
2022/10/08 05:00:26;;;;;;;8.20;5.40;;;;;;;10.80;87.41;96999.19;105540;1303;25372;-81
2022/10/08 05:02:57;;;;;;;8.00;4.80;;;;;;;10.84;87.50;96999.44;105529;1303;25389;-81
2022/10/08 05:05:30;;;;;;;7.20;4.70;;;;;;;10.97;87.62;97001.32;105545;1303;22616;-81
2022/10/08 05:08:02;;;;;;;6.60;4.70;;;;;;;11.18;87.53;96996.77;105559;1297;22558;-81
2022/10/08 05:10:33;;;;;;;9.60;4.80;;;;;;;11.46;87.42;96997.12;105496;1281;24255;-81
2022/10/08 05:13:05;;;;;;;7.60;4.60;;;;;;;11.76;87.06;96992.81;105554;1303;24240;-81
2022/10/08 05:15:37;;;;;;;6.60;4.70;;;;;;;12.07;86.55;96995.21;105545;1288;22505;-81
2022/10/08 05:18:08;;;;;;;7.20;4.20;;;;;;;12.42;85.80;96994.11;105571;1293;22474;-81
2022/10/08 05:20:39;;;;;;;7.60;4.30;;;;;;;12.77;84.87;96994.09;105508;1288;22461;-81
2022/10/08 05:23:11;;;;;;;6.70;3.80;;;;;;;13.10;83.97;96992.34;105541;1282;22728;-81
2022/10/08 05:25:42;;;;;;;7.90;4.40;;;;;;;13.32;82.41;96992.58;105534;1296;22474;-81
2022/10/08 05:28:13;;;;;;;10.80;4.80;;;;;;;13.41;81.49;96984.63;105531;1285;22435;-82
2022/10/08 05:30:46;;;;;;;6.10;4.40;;;;;;;13.54;80.81;96987.80;105545;1299;22460;-82
2022/10/08 05:33:17;;;;;;;8.90;4.50;;;;;;;13.80;80.17;96990.90;105572;1303;22490;-82
2022/10/08 05:35:48;;;;;;;6.30;4.30;;;;;;;14.12;79.50;96986.63;105564;1285;22527;-82
2022/10/08 05:38:20;;;;;;;4.60;3.70;;;;;;;14.45;78.31;96993.93;105555;1295;22464;-82
2022/10/08 05:40:51;;;;;;;7.20;4.50;;;;;;;14.77;77.12;96991.19;105409;1295;34255;-82
2022/10/08 05:43:22;;;;;;;10.80;4.40;;;;;;;15.06;76.35;96991.12;105495;1305;22469;-82
2022/10/08 05:45:54;;;;;;;9.50;4.50;;;;;;;15.33;75.10;96989.62;105507;1288;23955;-82
2022/10/08 05:48:25;;;;;;;5.40;3.50;;;;;;;15.46;73.71;96990.61;105391;1306;24140;-80
2022/10/08 05:50:57;;;;;;;6.80;4.10;;;;;;;15.72;73.09;96993.24;105478;1305;24361;-82
2022/10/08 05:53:28;;;;;;;6.40;3.20;;;;;;;16.01;71.82;96995.36;105533;1306;22699;-82
2022/10/08 05:56:03;;;;;;;6.30;3.60;;;;;;;16.11;69.96;96993.61;105516;1306;22476;-82
2022/10/08 05:58:38;;;;;;;6.80;3.70;;;;;;;16.27;69.35;96999.11;105459;1294;26731;-81
2022/10/08 06:01:13;;;;;;;6.80;3.50;;;;;;;16.45;67.69;96996.01;105558;1303;22482;-82
2022/10/08 06:03:48;;;;;;;5.90;3.40;;;;;;;16.77;68.08;97000.51;105552;1303;22464;-82
2022/10/08 06:06:22;;;;;;;6.60;3.60;;;;;;;17.33;67.21;96999.61;105531;1288;22474;-82
2022/10/08 06:08:57;;;;;;;6.40;3.20;;;;;;;17.92;66.46;97001.36;105471;1303;22722;-82
2022/10/08 06:11:30;;;;;;;6.10;3.50;;;;;;;18.25;64.39;97007.32;105563;1289;24442;-82
2022/10/08 06:14:06;;;;;;;5.50;3.10;;;;;;;18.45;63.38;97013.64;105528;1300;22536;-82
2022/10/08 06:16:38;;;;;;;6.50;3.30;;;;;;;18.98;63.62;97014.08;105531;1289;22452;-82
2022/10/08 06:19:10;;;;;;;8.60;3.30;;;;;;;19.70;62.29;97011.21;105499;1285;22500;-83
2022/10/08 06:21:41;;;;;;;7.40;3.50;;;;;;;20.30;60.86;97012.90;105557;1288;22546;-82
2022/10/08 06:24:17;;;;;;;4.00;3.10;;;;;;;20.61;59.05;97017.64;105533;1303;22523;-82
2022/10/08 06:26:52;;;;;;;6.40;2.90;;;;;;;20.69;57.61;97017.27;105547;1295;22482;-83
2022/10/08 06:29:23;;;;;;;5.90;3.40;;;;;;;20.66;55.92;97015.96;105534;1289;23808;-82
2022/10/08 06:31:57;;;;;;;5.40;3.10;;;;;;;20.76;55.49;97018.75;105547;1285;24230;-82
2022/10/08 06:34:29;;;;;;;6.40;3.10;;;;;;;20.59;53.80;97019.11;105522;1303;25290;-82
2022/10/08 06:37:00;;;;;;;3.70;2.70;;;;;;;20.62;54.97;97015.98;105593;1288;25376;-82
2022/10/08 06:39:31;;;;;;;5.80;3.20;;;;;;;20.81;53.19;97018.67;105505;1303;22464;-82
2022/10/08 06:42:02;;;;;;;7.90;3.00;;;;;;;20.64;52.42;97024.42;105535;1288;22860;-82
2022/10/08 06:44:33;;;;;;;6.30;3.20;;;;;;;20.59;53.08;97026.70;105540;1302;22789;-82
2022/10/08 06:47:05;;;;;;;6.20;3.20;;;;;;;21.36;52.62;97019.88;105589;1296;22468;-82
2022/10/08 06:49:38;;;;;;;5.30;2.90;;;;;;;21.66;51.98;97013.86;105483;1289;23277;-81
2022/10/08 06:52:11;;;;;;;3.90;3.20;;;;;;;21.87;50.93;97014.09;105549;1291;22603;-82
2022/10/08 06:54:42;;;;;;;8.20;3.40;;;;;;;21.97;51.39;97016.41;105559;1303;22465;-82
2022/10/08 06:57:13;;;;;;;5.20;2.90;;;;;;;22.37;50.21;97016.31;105589;1302;22501;-82
2022/10/08 06:59:45;;;;;;;6.00;3.00;;;;;;;22.27;49.10;97020.20;105521;1303;22584;-82
2022/10/08 07:02:16;;;;;;;4.10;3.00;;;;;;;22.41;49.69;97020.20;105545;1285;22464;-82
2022/10/08 07:04:48;;;;;;;5.00;3.10;;;;;;;22.71;48.32;97018.30;105518;1281;23118;-82
2022/10/08 07:07:19;;;;;;;4.90;2.80;;;;;;;22.90;48.40;97018.27;105567;1297;23309;-83
2022/10/08 07:09:50;;;;;;;4.80;3.20;;;;;;;22.90;47.05;97020.42;105524;1297;25491;-82
2022/10/08 07:12:21;;;;;;;4.70;3.30;;;;;;;22.65;46.78;97020.45;105542;1303;22588;-82
2022/10/08 07:14:53;;;;;;;6.70;2.90;;;;;;;22.79;46.97;97018.73;105506;1285;22541;-82
2022/10/08 07:17:27;;;;;;;6.80;3.30;;;;;;;23.14;46.38;97020.94;105577;1289;25380;-82
2022/10/08 07:19:59;;;;;;;7.30;3.00;;;;;;;23.55;47.21;97020.60;105493;1295;24281;-82
2022/10/08 07:22:30;;;;;;;3.60;2.90;;;;;;;24.22;46.14;97018.11;105570;1304;22580;-82
2022/10/08 07:25:02;;;;;;;5.80;3.10;;;;;;;24.76;45.70;97016.77;105556;1294;22518;-82
2022/10/08 07:27:33;;;;;;;5.70;3.20;;;;;;;24.96;43.92;97017.18;105595;1303;25336;-82
2022/10/08 07:30:05;;;;;;;4.90;3.20;;;;;;;25.22;44.09;97013.45;105517;1289;24329;-82
2022/10/08 07:32:36;;;;;;;4.40;3.20;;;;;;;25.22;43.83;97019.20;105544;1304;25245;-82
2022/10/08 07:35:10;;;;;;;5.50;3.40;;;;;;;25.67;44.57;97016.70;105581;1275;23678;-82
2022/10/08 07:37:45;;;;;;;4.70;3.40;;;;;;;26.34;42.68;97022.17;105588;1295;22842;-82
2022/10/08 07:40:16;;;;;;;5.90;3.50;;;;;;;26.20;42.04;97023.16;105497;1293;24263;-82
2022/10/08 07:42:48;;;;;;;6.70;3.70;;;;;;;26.61;42.55;97024.17;105572;1295;22561;-83
2022/10/08 07:45:19;;;;;;;6.60;3.50;;;;;;;27.22;41.17;97022.92;105596;1304;22418;-83
2022/10/08 07:47:50;;;;;;;7.50;3.40;;;;;;;27.55;40.89;97031.83;105548;1285;23264;-83
2022/10/08 07:50:23;;;;;;;6.70;3.90;;;;;;;27.73;40.19;97026.76;105504;1289;29091;-83
2022/10/08 07:52:54;;;;;;;4.80;3.80;;;;;;;27.67;40.04;97029.04;105554;1303;23059;-82
2022/10/08 07:55:25;;;;;;;4.40;3.50;;;;;;;28.02;39.71;97028.46;105560;1301;22559;-83
2022/10/08 07:57:56;;;;;;;7.10;3.90;;;;;;;28.34;39.55;97030.59;105562;1303;25498;-83
2022/10/08 08:00:28;;;;;;;5.70;4.00;;;;;;;28.07;37.05;97028.63;105508;1287;25408;-83
2022/10/08 08:03:02;;;;;;;6.00;3.60;;;;;;;26.92;38.37;97028.48;105537;1304;25461;-83
2022/10/08 08:05:36;;;;;;;7.40;3.70;;;;;;;26.89;38.88;97026.42;105562;1303;22472;-83
2022/10/08 08:08:07;;;;;;;6.40;3.00;;;;;;;26.93;39.69;97024.67;105539;1292;22598;-83
2022/10/08 08:10:39;;;;;;;4.90;3.50;;;;;;;27.49;39.72;97032.86;105467;1307;23830;-83
2022/10/08 08:13:11;;;;;;;6.80;3.70;;;;;;;27.72;38.74;97029.85;105541;1280;25382;-83
2022/10/08 08:15:43;;;;;;;4.00;3.30;;;;;;;27.35;39.21;97031.11;105488;1306;22471;-83
2022/10/08 08:18:15;;;;;;;4.90;3.60;;;;;;;27.57;38.86;97028.17;105503;1285;23729;-83
2022/10/08 08:20:46;;;;;;;5.80;3.60;;;;;;;27.62;39.64;97026.66;105446;1303;26474;-83
2022/10/08 08:23:17;;;;;;;6.10;3.90;;;;;;;27.97;39.59;97022.05;105555;1300;22470;-83
2022/10/08 08:25:48;;;;;;;4.10;3.10;;;;;;;28.19;39.67;97020.92;105554;1278;23831;-83
2022/10/08 08:28:23;;;;;;;5.70;3.20;;;;;;;27.86;37.41;97018.24;105543;1285;23668;-83
2022/10/08 08:30:56;;;;;;;5.60;3.50;;;;;;;27.42;39.80;97012.13;105518;1304;30715;-83
2022/10/08 08:33:27;;;;;;;5.00;3.40;;;;;;;27.87;39.86;97010.24;105553;1301;22475;-83
2022/10/08 08:35:58;;;;;;;4.90;3.30;;;;;;;26.35;37.75;97006.02;105558;1294;22473;-83
2022/10/08 08:38:29;;;;;;;5.50;3.10;;;;;;;25.00;40.00;97006.88;105487;1308;23000;-83
2022/10/08 08:41:11;;;;;;;4.20;3.30;;;;;;;24.24;40.87;97005.77;105399;1294;22466;-83
2022/10/08 08:43:43;;;;;;;6.90;3.10;;;;;;;23.41;41.53;97009.36;105451;1287;22587;-82
2022/10/08 08:46:19;;;;;;;5.60;3.30;;;;;;;22.63;42.95;97003.70;105450;1298;22808;-83
2022/10/08 08:48:55;;;;;;;6.20;3.50;;;;;;;21.81;43.78;96998.16;105421;1294;22471;-82
2022/10/08 08:51:27;;;;;;;4.80;3.30;;;;;;;21.33;45.47;96996.83;105594;1304;23285;-83
2022/10/08 08:54:00;;;;;;;6.20;3.40;;;;;;;21.13;45.72;96996.02;105536;1301;22500;-83
2022/10/08 08:56:32;;;;;;;6.20;3.10;;;;;;;20.81;46.46;96996.34;105553;1300;24251;-83
2022/10/08 08:59:13;;;;;;;5.60;3.30;;;;;;;20.47;46.82;96992.89;105519;1285;22498;-83
2022/10/08 09:01:47;;;;;;;5.20;3.50;;;;;;;20.21;47.92;96987.89;105561;1303;24254;-82
2022/10/08 09:04:25;;;;;;;5.20;3.10;;;;;;;19.95;48.46;96989.17;105551;1304;22588;-82
2022/10/08 09:06:58;;;;;;;4.70;3.20;;;;;;;19.89;49.11;96985.67;105543;1304;22568;-83
2022/10/08 09:09:37;;;;;;;5.30;3.40;;;;;;;19.78;49.56;96985.89;105475;1291;24508;-83
2022/10/08 09:12:18;;;;;;;4.60;3.00;;;;;;;19.61;49.81;96985.02;105540;1295;23268;-83
2022/10/08 09:14:53;;;;;;;5.90;3.20;;;;;;;19.55;50.39;96985.94;105542;1304;25267;-83
2022/10/08 09:17:31;;;;;;;5.10;3.20;;;;;;;19.66;50.49;96981.64;105531;1299;22525;-83
2022/10/08 09:20:02;;;;;;;5.20;3.00;;;;;;;19.78;50.52;96977.63;105480;1303;22696;-83
2022/10/08 09:22:38;;;;;;;4.70;2.90;;;;;;;19.86;50.31;96980.54;105502;1299;22541;-84
2022/10/08 09:25:16;;;;;;;3.90;2.80;;;;;;;19.90;49.42;96974.98;105540;1304;22538;-83
2022/10/08 09:27:51;;;;;;;5.00;2.80;;;;;;;19.51;50.08;96973.56;105569;1303;22521;-83
2022/10/08 09:30:41;;;;;;;3.40;2.70;;;;;;;19.25;50.45;96982.52;105492;1294;28219;-83
2022/10/08 09:33:31;;;;;;;6.00;3.20;;;;;;;19.25;51.22;96986.98;105554;1296;22487;-83
2022/10/08 09:36:02;;;;;;;6.20;3.20;;;;;;;19.34;50.83;96988.70;105558;1304;24276;-83
2022/10/08 09:38:36;;;;;;;4.90;3.30;;;;;;;19.52;51.36;96983.52;105495;1301;22438;-83
2022/10/08 09:41:11;;;;;;;3.90;2.90;;;;;;;19.71;51.62;96979.54;105385;1305;22469;-83
2022/10/08 09:43:44;;;;;;;3.30;2.50;;;;;;;19.93;51.12;96981.02;105429;1304;25396;-83
2022/10/08 09:49:29;;;;;;;3.70;3.00;;;;;;;20.21;50.38;96974.57;102059;1344;545036;-84
2022/10/08 09:52:06;;;;;;;4.20;2.90;;;;;;;20.27;50.44;96976.48;104722;1301;22517;-84
2022/10/08 09:54:45;;;;;;;6.10;3.10;;;;;;;20.38;49.82;96973.32;104719;1316;25366;-84
2022/10/08 09:57:18;;;;;;;5.40;3.30;;;;;;;20.29;49.59;96968.39;104698;1298;22484;-84
2022/10/08 09:59:57;;;;;;;3.70;2.90;;;;;;;20.25;50.12;96963.54;104971;1306;22487;-84
2022/10/08 10:02:35;;;;;;;5.90;3.40;;;;;;;20.39;50.34;96965.60;104864;1310;208799;-84
2022/10/08 10:05:24;;;;;;;6.10;3.10;;;;;;;20.51;50.00;96959.71;105067;1307;22473;-84
2022/10/08 10:07:56;;;;;;;5.90;3.70;;;;;;;20.65;50.49;96958.02;105041;1310;22534;-84
2022/10/08 10:10:31;;;;;;;6.00;3.20;;;;;;;20.83;50.27;96956.38;105320;1282;22477;-84
2022/10/08 10:13:09;;;;;;;4.40;3.00;;;;;;;20.96;49.92;96953.58;105380;1301;24238;-84
2022/10/08 10:15:46;;;;;;;4.90;3.30;;;;;;;21.00;49.69;96951.17;105334;1307;22464;-84
2022/10/08 10:18:25;;;;;;;5.10;3.50;;;;;;;20.93;49.51;96949.84;105336;1307;22772;-84
2022/10/08 10:20:59;;;;;;;4.00;3.00;;;;;;;20.78;48.29;96944.42;105305;1296;33727;-84
2022/10/08 10:23:35;;;;;;;4.30;3.30;;;;;;;20.52;48.56;96944.75;105320;1306;22640;-84
2022/10/08 10:26:12;;;;;;;5.10;3.20;;;;;;;20.31;48.94;96940.14;105358;1307;22468;-84
2022/10/08 10:28:48;;;;;;;5.80;3.50;;;;;;;20.35;50.10;96940.23;105301;1295;22469;-84
2022/10/08 10:31:23;;;;;;;4.90;3.10;;;;;;;20.64;50.74;96933.91;105351;1285;22533;-85
2022/10/08 10:34:01;;;;;;;3.80;3.00;;;;;;;20.90;50.59;96928.89;105349;1307;23761;-85
2022/10/08 10:36:35;;;;;;;5.20;3.40;;;;;;;20.84;49.93;96928.63;105339;1293;22521;-84
2022/10/08 10:39:18;;;;;;;4.20;3.40;;;;;;;20.81;50.88;96919.73;105301;1306;22480;-84
2022/10/08 10:41:58;;;;;;;6.50;3.50;;;;;;;20.89;50.70;96918.92;105367;1307;22504;-84
2022/10/08 10:44:37;;;;;;;4.20;3.20;;;;;;;20.91;50.24;96913.57;105359;1297;23732;-84
2022/10/08 10:47:10;;;;;;;4.70;3.20;;;;;;;20.80;49.97;96910.23;105336;1280;22516;-84
2022/10/08 10:49:44;;;;;;;6.60;3.60;;;;;;;20.68;49.37;96907.42;105286;1307;24238;-85
2022/10/08 10:52:40;;;;;;;10.00;3.90;;;;;;;20.57;49.90;96904.81;105311;1307;22428;-85
2022/10/08 10:55:21;;;;;;;7.30;3.70;;;;;;;20.57;50.07;96899.80;105353;1292;25488;-85
2022/10/08 10:58:12;;;;;;;6.00;3.50;;;;;;;20.65;49.98;96900.53;105368;1301;23235;-84
2022/10/08 11:00:56;;;;;;;3.80;2.90;;;;;;;20.75;50.11;96897.00;105417;1307;22510;-85
2022/10/08 11:03:35;;;;;;;4.80;2.90;;;;;;;20.79;49.75;96893.20;105351;1307;22485;-85
2022/10/08 11:06:30;;;;;;;5.00;3.10;;;;;;;20.72;49.63;96886.05;105325;1307;22437;-85
2022/10/08 11:09:08;;;;;;;4.90;2.90;;;;;;;20.75;49.52;96875.92;105241;1300;23666;-85
2022/10/08 11:11:45;;;;;;;4.60;3.00;;;;;;;20.71;49.23;96882.64;105336;1298;22513;-84
2022/10/08 11:14:43;;;;;;;3.40;2.90;;;;;;;20.66;49.00;96870.52;105324;1307;22469;-84
2022/10/08 11:17:33;;;;;;;4.90;3.00;;;;;;;20.68;49.31;96871.69;105332;1289;23848;-84
2022/10/08 11:20:39;;;;;;;5.90;2.50;;;;;;;20.75;49.30;96866.20;105286;1295;22455;-85
2022/10/08 11:23:23;;;;;;;6.60;3.10;;;;;;;20.94;49.49;96864.09;105328;1282;22495;-84
2022/10/08 11:25:59;;;;;;;5.20;2.70;;;;;;;20.91;48.16;96861.29;105318;1298;24257;-85
2022/10/08 11:28:52;;;;;;;3.80;2.60;;;;;;;20.96;47.87;96859.30;105328;1299;22486;-84
2022/10/08 11:31:33;;;;;;;4.10;2.60;;;;;;;21.11;46.87;96858.74;105384;1295;24259;-85
2022/10/08 11:34:09;;;;;;;4.00;2.50;;;;;;;21.10;45.92;96859.54;105379;1286;25073;-84
2022/10/08 11:36:51;;;;;;;3.60;2.30;;;;;;;21.02;44.80;96854.88;105407;1294;22480;-85
2022/10/08 11:39:26;;;;;;;3.20;2.60;;;;;;;21.03;45.76;96852.42;105269;1306;22479;-85
2022/10/08 11:42:06;;;;;;;3.20;2.30;;;;;;;21.16;45.20;96849.81;105393;1291;22613;-85
2022/10/08 11:44:37;;;;;;;3.00;2.20;;;;;;;21.18;45.12;96854.10;105336;1307;22524;-85
2022/10/08 11:47:56;;;;;;;4.40;2.40;;;;;;;21.19;44.62;96842.73;105371;1306;22609;-85
2022/10/08 11:50:32;;;;;;;3.20;2.40;;;;;;;21.04;43.77;96842.61;104988;1310;22482;-85
2022/10/08 11:53:21;;;;;;;3.80;2.30;;;;;;;20.98;43.95;96835.20;105279;1299;22511;-86
2022/10/08 11:55:55;;;;;;;6.40;2.80;;;;;;;20.94;44.16;96833.98;105338;1307;22905;-85
2022/10/08 11:58:30;;;;;;;3.30;2.60;;;;;;;20.95;44.49;96834.54;105396;1307;22781;-84
2022/10/08 12:01:05;;;;;;;8.60;2.70;;;;;;;20.95;44.60;96832.01;105483;1304;22504;-85
2022/10/08 12:03:41;;;;;;;3.30;2.30;;;;;;;20.91;43.94;96837.05;105468;1291;24450;-85
2022/10/08 12:06:28;;;;;;;4.30;2.30;;;;;;;20.90;44.37;96833.23;105687;1288;22517;-85
2022/10/08 12:09:01;;;;;;;5.90;2.70;;;;;;;20.94;44.91;96830.13;105632;1295;22598;-85